sensor_id;sensor_type;location;lat;lon;timestamp;P1;durP1;ratioP1;P2;durP2;ratioP2
83094;SDS011;72967;43.674;6.976;2023-09-30T00:02:21;6.55;;;4.30;;
83094;SDS011;72967;43.674;6.976;2023-09-30T00:04:47;6.47;;;4.60;;
83094;SDS011;72967;43.674;6.976;2023-09-30T00:07:12;5.30;;;3.95;;
83094;SDS011;72967;43.674;6.976;2023-09-30T00:09:37;5.40;;;4.22;;
83094;SDS011;72967;43.674;6.976;2023-09-30T00:12:03;6.97;;;4.60;;
83094;SDS011;72967;43.674;6.976;2023-09-30T00:14:29;5.65;;;4.68;;
83094;SDS011;72967;43.674;6.976;2023-09-30T00:16:54;9.68;;;5.03;;
83094;SDS011;72967;43.674;6.976;2023-09-30T00:19:20;5.93;;;4.65;;
83094;SDS011;72967;43.674;6.976;2023-09-30T00:21:47;4.78;;;4.15;;
83094;SDS011;72967;43.674;6.976;2023-09-30T00:24:13;4.63;;;4.07;;
83094;SDS011;72967;43.674;6.976;2023-09-30T00:26:39;5.28;;;4.20;;
83094;SDS011;72967;43.674;6.976;2023-09-30T00:29:04;9.20;;;4.38;;
83094;SDS011;72967;43.674;6.976;2023-09-30T00:31:30;5.82;;;4.40;;
83094;SDS011;72967;43.674;6.976;2023-09-30T00:33:56;5.60;;;4.13;;
83094;SDS011;72967;43.674;6.976;2023-09-30T00:36:21;4.90;;;4.05;;
83094;SDS011;72967;43.674;6.976;2023-09-30T00:38:47;6.95;;;4.50;;
83094;SDS011;72967;43.674;6.976;2023-09-30T00:41:12;6.40;;;4.60;;
83094;SDS011;72967;43.674;6.976;2023-09-30T00:43:39;6.22;;;4.13;;
83094;SDS011;72967;43.674;6.976;2023-09-30T00:46:06;6.28;;;4.22;;
83094;SDS011;72967;43.674;6.976;2023-09-30T00:48:45;7.60;;;5.07;;
83094;SDS011;72967;43.674;6.976;2023-09-30T00:51:11;6.07;;;3.75;;
83094;SDS011;72967;43.674;6.976;2023-09-30T00:53:36;5.30;;;4.00;;
83094;SDS011;72967;43.674;6.976;2023-09-30T00:56:02;5.25;;;3.97;;
83094;SDS011;72967;43.674;6.976;2023-09-30T00:58:28;6.45;;;4.30;;
83094;SDS011;72967;43.674;6.976;2023-09-30T01:00:56;7.22;;;4.18;;
83094;SDS011;72967;43.674;6.976;2023-09-30T01:03:22;6.25;;;4.38;;
83094;SDS011;72967;43.674;6.976;2023-09-30T01:05:48;6.35;;;4.35;;
83094;SDS011;72967;43.674;6.976;2023-09-30T01:08:14;5.15;;;4.60;;
83094;SDS011;72967;43.674;6.976;2023-09-30T01:10:41;5.78;;;5.15;;
83094;SDS011;72967;43.674;6.976;2023-09-30T01:13:07;7.18;;;4.65;;
83094;SDS011;72967;43.674;6.976;2023-09-30T01:15:32;5.50;;;4.00;;
83094;SDS011;72967;43.674;6.976;2023-09-30T01:17:58;5.32;;;3.78;;
83094;SDS011;72967;43.674;6.976;2023-09-30T01:20:23;4.95;;;3.90;;
83094;SDS011;72967;43.674;6.976;2023-09-30T01:22:49;6.82;;;4.38;;
83094;SDS011;72967;43.674;6.976;2023-09-30T01:25:15;7.28;;;4.55;;
83094;SDS011;72967;43.674;6.976;2023-09-30T01:27:40;6.97;;;4.00;;
83094;SDS011;72967;43.674;6.976;2023-09-30T01:30:06;4.55;;;4.13;;
83094;SDS011;72967;43.674;6.976;2023-09-30T01:32:36;6.00;;;4.40;;
83094;SDS011;72967;43.674;6.976;2023-09-30T01:35:02;10.57;;;4.63;;
83094;SDS011;72967;43.674;6.976;2023-09-30T01:37:27;5.75;;;5.13;;
83094;SDS011;72967;43.674;6.976;2023-09-30T01:39:56;6.28;;;4.40;;
83094;SDS011;72967;43.674;6.976;2023-09-30T01:42:21;7.13;;;4.43;;
83094;SDS011;72967;43.674;6.976;2023-09-30T01:44:46;5.57;;;4.40;;
83094;SDS011;72967;43.674;6.976;2023-09-30T01:47:13;7.60;;;4.40;;
83094;SDS011;72967;43.674;6.976;2023-09-30T01:49:38;5.82;;;4.13;;
83094;SDS011;72967;43.674;6.976;2023-09-30T01:52:03;6.22;;;4.70;;
83094;SDS011;72967;43.674;6.976;2023-09-30T01:54:29;5.40;;;4.05;;
83094;SDS011;72967;43.674;6.976;2023-09-30T01:56:55;6.20;;;4.70;;
83094;SDS011;72967;43.674;6.976;2023-09-30T01:59:20;8.50;;;4.40;;
83094;SDS011;72967;43.674;6.976;2023-09-30T02:01:46;6.78;;;4.30;;
83094;SDS011;72967;43.674;6.976;2023-09-30T02:04:12;9.10;;;4.20;;
83094;SDS011;72967;43.674;6.976;2023-09-30T02:06:40;6.07;;;4.47;;
83094;SDS011;72967;43.674;6.976;2023-09-30T02:09:05;5.68;;;4.25;;
83094;SDS011;72967;43.674;6.976;2023-09-30T02:11:33;6.05;;;4.70;;
83094;SDS011;72967;43.674;6.976;2023-09-30T02:13:59;5.93;;;4.43;;
83094;SDS011;72967;43.674;6.976;2023-09-30T02:16:24;5.68;;;4.57;;
83094;SDS011;72967;43.674;6.976;2023-09-30T02:18:50;8.60;;;4.65;;
83094;SDS011;72967;43.674;6.976;2023-09-30T02:21:17;6.20;;;4.63;;
83094;SDS011;72967;43.674;6.976;2023-09-30T02:23:42;7.25;;;4.65;;
83094;SDS011;72967;43.674;6.976;2023-09-30T02:26:12;5.13;;;4.55;;
83094;SDS011;72967;43.674;6.976;2023-09-30T02:28:39;7.93;;;4.22;;
83094;SDS011;72967;43.674;6.976;2023-09-30T02:31:04;7.50;;;5.05;;
83094;SDS011;72967;43.674;6.976;2023-09-30T02:33:32;7.40;;;4.65;;
83094;SDS011;72967;43.674;6.976;2023-09-30T02:35:58;7.13;;;4.97;;
83094;SDS011;72967;43.674;6.976;2023-09-30T02:38:24;7.53;;;4.30;;
83094;SDS011;72967;43.674;6.976;2023-09-30T02:40:50;4.68;;;4.13;;
83094;SDS011;72967;43.674;6.976;2023-09-30T02:43:16;6.25;;;4.30;;
83094;SDS011;72967;43.674;6.976;2023-09-30T02:45:42;6.07;;;3.88;;
83094;SDS011;72967;43.674;6.976;2023-09-30T02:48:08;7.63;;;4.93;;
83094;SDS011;72967;43.674;6.976;2023-09-30T02:50:34;8.00;;;4.75;;
83094;SDS011;72967;43.674;6.976;2023-09-30T02:52:59;7.03;;;4.55;;
83094;SDS011;72967;43.674;6.976;2023-09-30T02:55:25;7.38;;;4.60;;
83094;SDS011;72967;43.674;6.976;2023-09-30T02:57:50;7.45;;;4.60;;
83094;SDS011;72967;43.674;6.976;2023-09-30T03:00:16;7.50;;;4.85;;
83094;SDS011;72967;43.674;6.976;2023-09-30T03:02:48;5.38;;;4.68;;
83094;SDS011;72967;43.674;6.976;2023-09-30T03:05:14;7.95;;;4.70;;
83094;SDS011;72967;43.674;6.976;2023-09-30T03:07:40;6.22;;;4.40;;
83094;SDS011;72967;43.674;6.976;2023-09-30T03:10:06;6.63;;;4.40;;
83094;SDS011;72967;43.674;6.976;2023-09-30T03:12:34;5.68;;;4.43;;
83094;SDS011;72967;43.674;6.976;2023-09-30T03:15:00;6.75;;;4.72;;
83094;SDS011;72967;43.674;6.976;2023-09-30T03:17:29;7.30;;;4.43;;
83094;SDS011;72967;43.674;6.976;2023-09-30T03:19:58;7.38;;;4.95;;
83094;SDS011;72967;43.674;6.976;2023-09-30T03:22:24;8.18;;;5.25;;
83094;SDS011;72967;43.674;6.976;2023-09-30T03:24:52;7.85;;;4.57;;
83094;SDS011;72967;43.674;6.976;2023-09-30T03:27:19;6.45;;;4.53;;
83094;SDS011;72967;43.674;6.976;2023-09-30T03:29:45;7.78;;;4.88;;
83094;SDS011;72967;43.674;6.976;2023-09-30T03:32:11;7.82;;;5.10;;
83094;SDS011;72967;43.674;6.976;2023-09-30T03:34:36;6.75;;;5.15;;
83094;SDS011;72967;43.674;6.976;2023-09-30T03:37:02;6.07;;;5.30;;
83094;SDS011;72967;43.674;6.976;2023-09-30T03:39:27;7.60;;;4.38;;
83094;SDS011;72967;43.674;6.976;2023-09-30T03:41:55;7.63;;;5.57;;
83094;SDS011;72967;43.674;6.976;2023-09-30T03:44:22;5.82;;;4.38;;
83094;SDS011;72967;43.674;6.976;2023-09-30T03:46:51;7.97;;;4.72;;
83094;SDS011;72967;43.674;6.976;2023-09-30T03:49:18;5.97;;;4.90;;
83094;SDS011;72967;43.674;6.976;2023-09-30T03:51:45;6.93;;;4.97;;
83094;SDS011;72967;43.674;6.976;2023-09-30T03:54:10;7.95;;;5.03;;
83094;SDS011;72967;43.674;6.976;2023-09-30T03:56:36;6.20;;;4.30;;
83094;SDS011;72967;43.674;6.976;2023-09-30T03:59:06;8.75;;;5.35;;
83094;SDS011;72967;43.674;6.976;2023-09-30T04:01:33;12.23;;;5.00;;
83094;SDS011;72967;43.674;6.976;2023-09-30T04:03:59;6.80;;;4.47;;
83094;SDS011;72967;43.674;6.976;2023-09-30T04:06:25;6.25;;;4.72;;
83094;SDS011;72967;43.674;6.976;2023-09-30T04:08:51;6.38;;;5.10;;
83094;SDS011;72967;43.674;6.976;2023-09-30T04:11:16;6.32;;;4.50;;
83094;SDS011;72967;43.674;6.976;2023-09-30T04:13:46;5.70;;;4.97;;
83094;SDS011;72967;43.674;6.976;2023-09-30T04:16:11;6.85;;;4.38;;
83094;SDS011;72967;43.674;6.976;2023-09-30T04:18:37;7.38;;;5.22;;
83094;SDS011;72967;43.674;6.976;2023-09-30T04:21:05;7.80;;;4.85;;
83094;SDS011;72967;43.674;6.976;2023-09-30T04:23:32;7.47;;;4.95;;
83094;SDS011;72967;43.674;6.976;2023-09-30T04:26:01;6.22;;;4.43;;
83094;SDS011;72967;43.674;6.976;2023-09-30T04:28:27;6.82;;;5.05;;
83094;SDS011;72967;43.674;6.976;2023-09-30T04:30:52;9.15;;;4.75;;
83094;SDS011;72967;43.674;6.976;2023-09-30T04:33:18;5.72;;;4.63;;
83094;SDS011;72967;43.674;6.976;2023-09-30T04:35:46;6.45;;;4.68;;
83094;SDS011;72967;43.674;6.976;2023-09-30T04:38:12;9.52;;;4.93;;
83094;SDS011;72967;43.674;6.976;2023-09-30T04:40:38;5.65;;;4.50;;
83094;SDS011;72967;43.674;6.976;2023-09-30T04:43:04;13.43;;;5.63;;
83094;SDS011;72967;43.674;6.976;2023-09-30T04:45:30;7.00;;;4.85;;
83094;SDS011;72967;43.674;6.976;2023-09-30T04:47:56;6.50;;;4.57;;
83094;SDS011;72967;43.674;6.976;2023-09-30T04:50:21;12.88;;;4.85;;
83094;SDS011;72967;43.674;6.976;2023-09-30T04:52:47;6.95;;;4.55;;
83094;SDS011;72967;43.674;6.976;2023-09-30T04:55:14;6.60;;;5.03;;
83094;SDS011;72967;43.674;6.976;2023-09-30T04:57:41;6.45;;;4.57;;
83094;SDS011;72967;43.674;6.976;2023-09-30T05:00:09;7.57;;;5.53;;
83094;SDS011;72967;43.674;6.976;2023-09-30T05:02:37;6.68;;;4.82;;
83094;SDS011;72967;43.674;6.976;2023-09-30T05:05:03;7.78;;;4.50;;
83094;SDS011;72967;43.674;6.976;2023-09-30T05:07:31;5.63;;;4.90;;
83094;SDS011;72967;43.674;6.976;2023-09-30T05:09:57;7.68;;;4.72;;
83094;SDS011;72967;43.674;6.976;2023-09-30T05:12:23;5.55;;;4.85;;
83094;SDS011;72967;43.674;6.976;2023-09-30T05:14:48;8.00;;;4.72;;
83094;SDS011;72967;43.674;6.976;2023-09-30T05:17:14;7.82;;;4.75;;
83094;SDS011;72967;43.674;6.976;2023-09-30T05:19:40;6.70;;;4.63;;
83094;SDS011;72967;43.674;6.976;2023-09-30T05:22:06;7.72;;;5.00;;
83094;SDS011;72967;43.674;6.976;2023-09-30T05:24:31;8.07;;;4.90;;
83094;SDS011;72967;43.674;6.976;2023-09-30T05:26:57;7.88;;;5.47;;
83094;SDS011;72967;43.674;6.976;2023-09-30T05:29:22;6.57;;;4.93;;
83094;SDS011;72967;43.674;6.976;2023-09-30T05:31:48;6.07;;;5.03;;
83094;SDS011;72967;43.674;6.976;2023-09-30T05:34:14;4.95;;;4.43;;
83094;SDS011;72967;43.674;6.976;2023-09-30T05:36:39;6.55;;;5.22;;
83094;SDS011;72967;43.674;6.976;2023-09-30T05:39:05;4.90;;;4.25;;
83094;SDS011;72967;43.674;6.976;2023-09-30T05:41:30;8.10;;;4.78;;
83094;SDS011;72967;43.674;6.976;2023-09-30T05:43:56;5.40;;;4.68;;
83094;SDS011;72967;43.674;6.976;2023-09-30T05:46:23;10.50;;;5.60;;
83094;SDS011;72967;43.674;6.976;2023-09-30T05:48:49;6.93;;;4.50;;
83094;SDS011;72967;43.674;6.976;2023-09-30T05:51:15;6.38;;;5.00;;
83094;SDS011;72967;43.674;6.976;2023-09-30T05:53:41;8.38;;;4.80;;
83094;SDS011;72967;43.674;6.976;2023-09-30T05:56:07;7.93;;;4.82;;
83094;SDS011;72967;43.674;6.976;2023-09-30T05:58:32;10.55;;;5.03;;
83094;SDS011;72967;43.674;6.976;2023-09-30T06:00:58;8.00;;;5.45;;
83094;SDS011;72967;43.674;6.976;2023-09-30T06:03:25;7.80;;;5.03;;
83094;SDS011;72967;43.674;6.976;2023-09-30T06:05:54;9.32;;;4.68;;
83094;SDS011;72967;43.674;6.976;2023-09-30T06:08:21;9.48;;;4.88;;
83094;SDS011;72967;43.674;6.976;2023-09-30T06:10:46;8.00;;;5.03;;
83094;SDS011;72967;43.674;6.976;2023-09-30T06:13:12;8.32;;;4.97;;
83094;SDS011;72967;43.674;6.976;2023-09-30T06:15:38;8.43;;;5.50;;
83094;SDS011;72967;43.674;6.976;2023-09-30T06:18:05;7.80;;;4.47;;
83094;SDS011;72967;43.674;6.976;2023-09-30T06:20:31;7.07;;;4.45;;
83094;SDS011;72967;43.674;6.976;2023-09-30T06:22:58;7.43;;;4.80;;
83094;SDS011;72967;43.674;6.976;2023-09-30T06:25:25;8.75;;;4.82;;
83094;SDS011;72967;43.674;6.976;2023-09-30T06:27:52;7.20;;;5.03;;
83094;SDS011;72967;43.674;6.976;2023-09-30T06:30:22;5.82;;;5.00;;
83094;SDS011;72967;43.674;6.976;2023-09-30T06:32:54;5.28;;;4.55;;
83094;SDS011;72967;43.674;6.976;2023-09-30T06:35:20;5.78;;;4.68;;
83094;SDS011;72967;43.674;6.976;2023-09-30T06:37:47;5.47;;;4.93;;
83094;SDS011;72967;43.674;6.976;2023-09-30T06:40:12;7.80;;;5.35;;
83094;SDS011;72967;43.674;6.976;2023-09-30T06:42:38;5.80;;;4.82;;
83094;SDS011;72967;43.674;6.976;2023-09-30T06:45:05;6.90;;;5.03;;
83094;SDS011;72967;43.674;6.976;2023-09-30T06:47:40;7.70;;;4.55;;
83094;SDS011;72967;43.674;6.976;2023-09-30T06:50:10;8.63;;;4.53;;
83094;SDS011;72967;43.674;6.976;2023-09-30T06:52:37;6.68;;;4.70;;
83094;SDS011;72967;43.674;6.976;2023-09-30T06:55:04;7.68;;;4.50;;
83094;SDS011;72967;43.674;6.976;2023-09-30T06:57:33;6.80;;;4.82;;
83094;SDS011;72967;43.674;6.976;2023-09-30T07:00:00;8.23;;;5.03;;
83094;SDS011;72967;43.674;6.976;2023-09-30T07:02:26;7.32;;;5.05;;
83094;SDS011;72967;43.674;6.976;2023-09-30T07:04:52;5.65;;;4.97;;
83094;SDS011;72967;43.674;6.976;2023-09-30T07:07:18;9.00;;;5.03;;
83094;SDS011;72967;43.674;6.976;2023-09-30T07:09:43;8.38;;;4.95;;
83094;SDS011;72967;43.674;6.976;2023-09-30T07:12:09;7.05;;;4.63;;
83094;SDS011;72967;43.674;6.976;2023-09-30T07:14:35;6.53;;;4.65;;
83094;SDS011;72967;43.674;6.976;2023-09-30T07:17:00;6.55;;;4.93;;
83094;SDS011;72967;43.674;6.976;2023-09-30T07:19:25;7.13;;;5.07;;
83094;SDS011;72967;43.674;6.976;2023-09-30T07:21:51;5.15;;;4.65;;
83094;SDS011;72967;43.674;6.976;2023-09-30T07:24:16;5.75;;;4.45;;
83094;SDS011;72967;43.674;6.976;2023-09-30T07:26:42;7.30;;;5.15;;
83094;SDS011;72967;43.674;6.976;2023-09-30T07:29:08;8.63;;;4.93;;
83094;SDS011;72967;43.674;6.976;2023-09-30T07:31:37;6.78;;;4.95;;
83094;SDS011;72967;43.674;6.976;2023-09-30T07:34:02;6.40;;;5.15;;
83094;SDS011;72967;43.674;6.976;2023-09-30T07:36:28;8.95;;;4.72;;
83094;SDS011;72967;43.674;6.976;2023-09-30T07:38:53;5.57;;;4.88;;
83094;SDS011;72967;43.674;6.976;2023-09-30T07:41:19;6.97;;;5.35;;
83094;SDS011;72967;43.674;6.976;2023-09-30T07:43:45;7.63;;;5.43;;
83094;SDS011;72967;43.674;6.976;2023-09-30T07:46:10;8.35;;;5.18;;
83094;SDS011;72967;43.674;6.976;2023-09-30T07:48:35;8.27;;;4.55;;
83094;SDS011;72967;43.674;6.976;2023-09-30T07:51:01;6.40;;;4.60;;
83094;SDS011;72967;43.674;6.976;2023-09-30T07:53:27;7.85;;;4.90;;
83094;SDS011;72967;43.674;6.976;2023-09-30T07:55:52;10.60;;;5.13;;
83094;SDS011;72967;43.674;6.976;2023-09-30T07:58:19;8.43;;;5.00;;
83094;SDS011;72967;43.674;6.976;2023-09-30T08:00:45;7.57;;;4.80;;
83094;SDS011;72967;43.674;6.976;2023-09-30T08:03:10;6.25;;;5.32;;
83094;SDS011;72967;43.674;6.976;2023-09-30T08:05:36;6.80;;;5.35;;
83094;SDS011;72967;43.674;6.976;2023-09-30T08:08:03;6.22;;;5.00;;
83094;SDS011;72967;43.674;6.976;2023-09-30T08:10:29;11.90;;;5.53;;
83094;SDS011;72967;43.674;6.976;2023-09-30T08:12:56;8.70;;;5.50;;
83094;SDS011;72967;43.674;6.976;2023-09-30T08:15:23;8.13;;;5.28;;
83094;SDS011;72967;43.674;6.976;2023-09-30T08:17:49;7.63;;;5.03;;
83094;SDS011;72967;43.674;6.976;2023-09-30T08:20:15;7.53;;;5.25;;
83094;SDS011;72967;43.674;6.976;2023-09-30T08:22:40;7.13;;;4.72;;
83094;SDS011;72967;43.674;6.976;2023-09-30T08:25:06;7.45;;;5.35;;
83094;SDS011;72967;43.674;6.976;2023-09-30T08:27:32;7.88;;;7.00;;
83094;SDS011;72967;43.674;6.976;2023-09-30T08:29:57;6.93;;;6.10;;
83094;SDS011;72967;43.674;6.976;2023-09-30T08:32:23;7.70;;;6.78;;
83094;SDS011;72967;43.674;6.976;2023-09-30T08:34:48;9.57;;;6.45;;
83094;SDS011;72967;43.674;6.976;2023-09-30T08:37:14;8.48;;;6.47;;
83094;SDS011;72967;43.674;6.976;2023-09-30T08:39:40;6.97;;;5.35;;
83094;SDS011;72967;43.674;6.976;2023-09-30T08:42:09;6.82;;;4.80;;
83094;SDS011;72967;43.674;6.976;2023-09-30T08:44:38;5.75;;;5.15;;
83094;SDS011;72967;43.674;6.976;2023-09-30T08:47:05;7.80;;;5.38;;
83094;SDS011;72967;43.674;6.976;2023-09-30T08:49:39;6.50;;;5.22;;
83094;SDS011;72967;43.674;6.976;2023-09-30T08:52:06;7.32;;;5.00;;
83094;SDS011;72967;43.674;6.976;2023-09-30T08:54:34;7.38;;;5.82;;
83094;SDS011;72967;43.674;6.976;2023-09-30T08:57:00;8.98;;;5.40;;
83094;SDS011;72967;43.674;6.976;2023-09-30T08:59:26;7.05;;;5.28;;
83094;SDS011;72967;43.674;6.976;2023-09-30T09:01:53;10.60;;;5.53;;
83094;SDS011;72967;43.674;6.976;2023-09-30T09:04:18;6.03;;;5.43;;
83094;SDS011;72967;43.674;6.976;2023-09-30T09:06:44;7.22;;;5.40;;
83094;SDS011;72967;43.674;6.976;2023-09-30T09:09:18;8.43;;;5.05;;
83094;SDS011;72967;43.674;6.976;2023-09-30T09:11:44;5.47;;;4.80;;
83094;SDS011;72967;43.674;6.976;2023-09-30T09:14:11;8.65;;;5.25;;
83094;SDS011;72967;43.674;6.976;2023-09-30T09:16:37;5.88;;;4.93;;
83094;SDS011;72967;43.674;6.976;2023-09-30T09:19:12;9.40;;;5.65;;
83094;SDS011;72967;43.674;6.976;2023-09-30T09:21:39;8.73;;;5.65;;
83094;SDS011;72967;43.674;6.976;2023-09-30T09:24:28;12.70;;;5.15;;
83094;SDS011;72967;43.674;6.976;2023-09-30T09:27:09;7.18;;;5.00;;
83094;SDS011;72967;43.674;6.976;2023-09-30T09:29:36;12.05;;;5.20;;
83094;SDS011;72967;43.674;6.976;2023-09-30T09:32:15;8.18;;;5.45;;
83094;SDS011;72967;43.674;6.976;2023-09-30T09:34:42;7.35;;;5.40;;
83094;SDS011;72967;43.674;6.976;2023-09-30T09:37:16;8.25;;;5.20;;
83094;SDS011;72967;43.674;6.976;2023-09-30T09:39:53;8.45;;;5.43;;
83094;SDS011;72967;43.674;6.976;2023-09-30T09:42:30;6.65;;;5.57;;
83094;SDS011;72967;43.674;6.976;2023-09-30T09:44:58;9.85;;;5.20;;
83094;SDS011;72967;43.674;6.976;2023-09-30T09:47:25;7.35;;;5.35;;
83094;SDS011;72967;43.674;6.976;2023-09-30T09:49:52;7.32;;;5.75;;
83094;SDS011;72967;43.674;6.976;2023-09-30T09:52:18;7.82;;;4.78;;
83094;SDS011;72967;43.674;6.976;2023-09-30T09:54:45;7.13;;;5.38;;
83094;SDS011;72967;43.674;6.976;2023-09-30T09:57:13;7.65;;;4.70;;
83094;SDS011;72967;43.674;6.976;2023-09-30T09:59:39;7.53;;;5.07;;
83094;SDS011;72967;43.674;6.976;2023-09-30T10:02:10;8.45;;;5.10;;
83094;SDS011;72967;43.674;6.976;2023-09-30T10:04:42;6.18;;;5.13;;
83094;SDS011;72967;43.674;6.976;2023-09-30T10:07:13;9.65;;;5.60;;
83094;SDS011;72967;43.674;6.976;2023-09-30T10:09:44;6.22;;;5.63;;
83094;SDS011;72967;43.674;6.976;2023-09-30T10:12:13;6.35;;;5.18;;
83094;SDS011;72967;43.674;6.976;2023-09-30T10:14:40;9.63;;;5.53;;
83094;SDS011;72967;43.674;6.976;2023-09-30T10:17:05;11.82;;;5.10;;
83094;SDS011;72967;43.674;6.976;2023-09-30T10:19:31;8.65;;;5.15;;
83094;SDS011;72967;43.674;6.976;2023-09-30T10:22:39;9.07;;;5.30;;
83094;SDS011;72967;43.674;6.976;2023-09-30T10:24:54;10.07;;;5.65;;
83094;SDS011;72967;43.674;6.976;2023-09-30T10:30:18;5.85;;;5.25;;
83094;SDS011;72967;43.674;6.976;2023-09-30T10:35:18;9.40;;;6.60;;
83094;SDS011;72967;43.674;6.976;2023-09-30T10:37:45;8.52;;;5.60;;
83094;SDS011;72967;43.674;6.976;2023-09-30T10:40:29;8.68;;;5.53;;
83094;SDS011;72967;43.674;6.976;2023-09-30T10:42:56;7.18;;;5.40;;
83094;SDS011;72967;43.674;6.976;2023-09-30T10:50:58;9.63;;;5.03;;
83094;SDS011;72967;43.674;6.976;2023-09-30T10:53:46;9.35;;;5.82;;
83094;SDS011;72967;43.674;6.976;2023-09-30T10:56:31;5.28;;;4.78;;
83094;SDS011;72967;43.674;6.976;2023-09-30T10:58:57;6.90;;;4.75;;
83094;SDS011;72967;43.674;6.976;2023-09-30T11:01:24;9.48;;;4.82;;
83094;SDS011;72967;43.674;6.976;2023-09-30T11:03:50;6.13;;;4.63;;
83094;SDS011;72967;43.674;6.976;2023-09-30T11:06:23;7.35;;;5.07;;
83094;SDS011;72967;43.674;6.976;2023-09-30T11:08:57;7.88;;;4.57;;
83094;SDS011;72967;43.674;6.976;2023-09-30T11:11:34;8.48;;;4.97;;
83094;SDS011;72967;43.674;6.976;2023-09-30T11:16:55;7.63;;;4.80;;
83094;SDS011;72967;43.674;6.976;2023-09-30T11:19:35;8.05;;;4.68;;
83094;SDS011;72967;43.674;6.976;2023-09-30T11:22:02;5.45;;;4.90;;
83094;SDS011;72967;43.674;6.976;2023-09-30T11:24:28;6.68;;;4.53;;
83094;SDS011;72967;43.674;6.976;2023-09-30T11:26:54;7.43;;;4.35;;
83094;SDS011;72967;43.674;6.976;2023-09-30T11:29:23;6.43;;;3.85;;
83094;SDS011;72967;43.674;6.976;2023-09-30T11:31:50;5.15;;;3.60;;
83094;SDS011;72967;43.674;6.976;2023-09-30T11:34:16;7.80;;;4.40;;
83094;SDS011;72967;43.674;6.976;2023-09-30T11:36:49;8.10;;;4.45;;
83094;SDS011;72967;43.674;6.976;2023-09-30T11:39:25;6.13;;;4.55;;
83094;SDS011;72967;43.674;6.976;2023-09-30T11:41:53;6.15;;;4.63;;
83094;SDS011;72967;43.674;6.976;2023-09-30T11:44:20;6.90;;;4.63;;
83094;SDS011;72967;43.674;6.976;2023-09-30T11:49:34;6.28;;;4.20;;
83094;SDS011;72967;43.674;6.976;2023-09-30T11:52:02;7.72;;;3.92;;
83094;SDS011;72967;43.674;6.976;2023-09-30T11:54:29;7.75;;;4.43;;
83094;SDS011;72967;43.674;6.976;2023-09-30T11:56:55;4.50;;;4.00;;
83094;SDS011;72967;43.674;6.976;2023-09-30T11:59:21;9.63;;;4.40;;
83094;SDS011;72967;43.674;6.976;2023-09-30T12:01:47;4.50;;;3.95;;
83094;SDS011;72967;43.674;6.976;2023-09-30T12:04:16;9.88;;;3.92;;
83094;SDS011;72967;43.674;6.976;2023-09-30T12:06:44;3.75;;;3.25;;
83094;SDS011;72967;43.674;6.976;2023-09-30T12:09:10;4.32;;;3.75;;
83094;SDS011;72967;43.674;6.976;2023-09-30T12:11:39;7.15;;;4.13;;
83094;SDS011;72967;43.674;6.976;2023-09-30T12:16:34;7.18;;;4.20;;
83094;SDS011;72967;43.674;6.976;2023-09-30T12:19:00;4.45;;;3.22;;
83094;SDS011;72967;43.674;6.976;2023-09-30T12:21:25;5.00;;;3.65;;
83094;SDS011;72967;43.674;6.976;2023-09-30T12:23:51;8.65;;;3.35;;
83094;SDS011;72967;43.674;6.976;2023-09-30T12:26:16;5.28;;;3.30;;
83094;SDS011;72967;43.674;6.976;2023-09-30T12:28:45;5.20;;;3.55;;
83094;SDS011;72967;43.674;6.976;2023-09-30T12:31:10;5.43;;;3.35;;
83094;SDS011;72967;43.674;6.976;2023-09-30T12:33:37;3.50;;;3.20;;
83094;SDS011;72967;43.674;6.976;2023-09-30T12:36:03;4.03;;;3.60;;
83094;SDS011;72967;43.674;6.976;2023-09-30T12:38:28;7.93;;;3.20;;
83094;SDS011;72967;43.674;6.976;2023-09-30T12:40:54;4.97;;;3.10;;
83094;SDS011;72967;43.674;6.976;2023-09-30T12:43:20;6.25;;;3.53;;
83094;SDS011;72967;43.674;6.976;2023-09-30T12:45:46;4.13;;;3.38;;
83094;SDS011;72967;43.674;6.976;2023-09-30T12:48:12;5.53;;;3.15;;
83094;SDS011;72967;43.674;6.976;2023-09-30T12:50:39;7.28;;;3.45;;
83094;SDS011;72967;43.674;6.976;2023-09-30T12:53:04;4.65;;;3.05;;
83094;SDS011;72967;43.674;6.976;2023-09-30T12:55:30;4.90;;;3.10;;
83094;SDS011;72967;43.674;6.976;2023-09-30T12:57:55;4.78;;;3.05;;
83094;SDS011;72967;43.674;6.976;2023-09-30T13:00:21;6.20;;;3.03;;
83094;SDS011;72967;43.674;6.976;2023-09-30T13:02:50;3.78;;;3.35;;
83094;SDS011;72967;43.674;6.976;2023-09-30T13:05:15;6.18;;;3.20;;
83094;SDS011;72967;43.674;6.976;2023-09-30T13:07:42;4.95;;;3.53;;
83094;SDS011;72967;43.674;6.976;2023-09-30T13:10:08;4.50;;;3.33;;
83094;SDS011;72967;43.674;6.976;2023-09-30T13:12:34;4.68;;;3.20;;
83094;SDS011;72967;43.674;6.976;2023-09-30T13:15:00;5.68;;;3.50;;
83094;SDS011;72967;43.674;6.976;2023-09-30T13:17:26;4.40;;;3.10;;
83094;SDS011;72967;43.674;6.976;2023-09-30T13:19:51;4.22;;;3.20;;
83094;SDS011;72967;43.674;6.976;2023-09-30T13:22:17;7.72;;;3.28;;
83094;SDS011;72967;43.674;6.976;2023-09-30T13:24:43;3.85;;;3.42;;
83094;SDS011;72967;43.674;6.976;2023-09-30T13:27:09;3.83;;;3.33;;
83094;SDS011;72967;43.674;6.976;2023-09-30T13:29:34;5.40;;;3.30;;
83094;SDS011;72967;43.674;6.976;2023-09-30T13:32:00;6.00;;;3.33;;
83094;SDS011;72967;43.674;6.976;2023-09-30T13:34:26;3.42;;;3.13;;
83094;SDS011;72967;43.674;6.976;2023-09-30T13:36:51;6.28;;;3.85;;
83094;SDS011;72967;43.674;6.976;2023-09-30T13:39:17;4.03;;;3.53;;
83094;SDS011;72967;43.674;6.976;2023-09-30T13:41:45;5.82;;;3.97;;
83094;SDS011;72967;43.674;6.976;2023-09-30T13:44:12;7.05;;;3.55;;
83094;SDS011;72967;43.674;6.976;2023-09-30T13:46:38;5.65;;;3.75;;
83094;SDS011;72967;43.674;6.976;2023-09-30T13:49:03;5.60;;;3.80;;
83094;SDS011;72967;43.674;6.976;2023-09-30T13:51:29;8.27;;;4.40;;
83094;SDS011;72967;43.674;6.976;2023-09-30T13:53:54;5.57;;;4.18;;
83094;SDS011;72967;43.674;6.976;2023-09-30T13:56:20;5.72;;;4.10;;
83094;SDS011;72967;43.674;6.976;2023-09-30T13:58:46;6.35;;;4.43;;
83094;SDS011;72967;43.674;6.976;2023-09-30T14:01:14;8.13;;;4.03;;
83094;SDS011;72967;43.674;6.976;2023-09-30T14:03:40;4.55;;;4.13;;
83094;SDS011;72967;43.674;6.976;2023-09-30T14:06:12;7.50;;;4.15;;
83094;SDS011;72967;43.674;6.976;2023-09-30T14:08:40;6.22;;;4.28;;
83094;SDS011;72967;43.674;6.976;2023-09-30T14:11:09;6.97;;;4.90;;
83094;SDS011;72967;43.674;6.976;2023-09-30T14:13:36;7.70;;;4.70;;
83094;SDS011;72967;43.674;6.976;2023-09-30T14:16:02;5.95;;;4.47;;
83094;SDS011;72967;43.674;6.976;2023-09-30T14:18:27;6.60;;;4.85;;
83094;SDS011;72967;43.674;6.976;2023-09-30T14:20:53;7.13;;;4.97;;
83094;SDS011;72967;43.674;6.976;2023-09-30T14:23:18;7.65;;;4.50;;
83094;SDS011;72967;43.674;6.976;2023-09-30T14:25:44;8.52;;;5.18;;
83094;SDS011;72967;43.674;6.976;2023-09-30T14:28:09;7.15;;;4.40;;
83094;SDS011;72967;43.674;6.976;2023-09-30T14:30:35;7.55;;;4.35;;
83094;SDS011;72967;43.674;6.976;2023-09-30T14:33:01;5.65;;;4.53;;
83094;SDS011;72967;43.674;6.976;2023-09-30T14:35:26;6.38;;;4.82;;
83094;SDS011;72967;43.674;6.976;2023-09-30T14:37:51;6.75;;;5.00;;
83094;SDS011;72967;43.674;6.976;2023-09-30T14:40:19;9.25;;;4.85;;
83094;SDS011;72967;43.674;6.976;2023-09-30T14:42:44;6.45;;;4.60;;
83094;SDS011;72967;43.674;6.976;2023-09-30T14:45:10;5.30;;;4.38;;
83094;SDS011;72967;43.674;6.976;2023-09-30T14:47:36;5.68;;;4.32;;
83094;SDS011;72967;43.674;6.976;2023-09-30T14:50:01;6.50;;;4.55;;
83094;SDS011;72967;43.674;6.976;2023-09-30T14:52:27;6.43;;;4.60;;
83094;SDS011;72967;43.674;6.976;2023-09-30T14:54:53;6.57;;;4.32;;
83094;SDS011;72967;43.674;6.976;2023-09-30T14:57:19;9.18;;;5.72;;
83094;SDS011;72967;43.674;6.976;2023-09-30T14:59:46;6.97;;;5.55;;
83094;SDS011;72967;43.674;6.976;2023-09-30T15:02:11;7.78;;;5.18;;
83094;SDS011;72967;43.674;6.976;2023-09-30T15:04:37;6.53;;;5.07;;
83094;SDS011;72967;43.674;6.976;2023-09-30T15:07:03;6.65;;;4.80;;